Thunder radar more information blitzortung!


Radar de pluja more information rain snow radar


Visita la nostra xarxa de llocs de meteo:

Template documentation
and downloads

And another site



No particular awareness of the weather is required.    There are no Weather-warnings

Pagina Historial Weather Underground text

Diari Resum January 16, 2018 Unitats:  Mètric    Imperial   Tant
« Previous Dia
SegĂźent Dia »
Diari Setmana Mensual Anual Personalitzada
  Actual: Maxima: Minima: Media:
Temperatura: 15.1 °C 15.1 °C 6.7 °C 9.2 °C
Punt de rosada: 5.8 °C 6.0 °C -0.5 °C 1.6 °C
Humitat: 54 % 65 % 54 % 59 %
Wind Speed: 5.6 km/h 14.8 km/h 0.0 km/h 5 km/h
RĂ fegues de vent: 5.6 km/h 14.8 km/h - -
Vent:West - - West
Pression baro: 1019.9 hPa 1023.9 hPa 1019.9 hPa -
Precipitacions: 0.0 mm      
Historical Graphs
 
 
Dades de taula per January 16, 2018
Temps Temperatura Punt de rosada Pression baro Vent Wind Speed RĂ fegues de vent Humitat Rainfall Rate (Hourly)
00:05 6.8 °C -0.2 °C 1019.9 hPa WSW 4.8 km/h 9.7 km/h 61 % 0.0 mm
00:07 7.2 °C 1.1 °C 1023.9 hPa West 5.6 km/h 5.6 km/h 65 % 0.0 mm
00:15 6.7 °C -0.3 °C 1019.9 hPa WSW 4.8 km/h 8.0 km/h 61 % 0.0 mm
00:25 6.8 °C -0.2 °C 1019.9 hPa WSW 8.0 km/h 9.7 km/h 61 % 0.0 mm
00:35 6.8 °C -0.2 °C 1019.9 hPa WSW 1.6 km/h 4.8 km/h 61 % 0.0 mm
00:45 6.9 °C -0.1 °C 1019.9 hPa WSW 4.8 km/h 6.4 km/h 61 % 0.0 mm
00:55 7.0 °C -0.2 °C 1019.9 hPa WSW 4.8 km/h 8.0 km/h 60 % 0.0 mm
01:05 7.1 °C -0.2 °C 1019.9 hPa WSW 4.8 km/h 8.0 km/h 60 % 0.0 mm
01:15 7.1 °C -0.2 °C 1019.9 hPa WSW 3.2 km/h 6.4 km/h 60 % 0.0 mm
01:25 7.3 °C 0.1 °C 1019.9 hPa West 4.8 km/h 6.4 km/h 60 % 0.0 mm
01:32 7.1 °C 0.7 °C 1021.9 hPa WSW 3.7 km/h 3.7 km/h 64 % 0.0 mm
01:35 7.4 °C 0.1 °C 1019.9 hPa West 4.8 km/h 6.4 km/h 60 % 0.0 mm
01:45 7.3 °C -0.2 °C 1019.9 hPa West 1.6 km/h 4.8 km/h 59 % 0.0 mm
01:55 7.0 °C -0.5 °C 1019.9 hPa Calm     59 % 0.0 mm
02:05 6.8 °C -0.4 °C 1020.9 hPa SW 1.6 km/h 3.2 km/h 60 % 0.0 mm
02:15 6.8 °C -0.4 °C 1020.9 hPa WSW 1.6 km/h 6.4 km/h 60 % 0.0 mm
02:25 7.1 °C -0.2 °C 1020.9 hPa West 3.2 km/h 8.0 km/h 60 % 0.0 mm
02:35 7.2 °C -0.1 °C 1020.9 hPa West 4.8 km/h 6.4 km/h 60 % 0.0 mm
02:45 7.4 °C 0.1 °C 1020.9 hPa WSW 3.2 km/h 6.4 km/h 60 % 0.0 mm
03:05 8.1 °C 0.8 °C 1020.9 hPa WSW 4.8 km/h 4.8 km/h 60 % 0.0 mm
03:15 8.5 °C 1.2 °C 1020.9 hPa West 1.6 km/h 3.2 km/h 60 % 0.0 mm
03:25 8.6 °C 1.3 °C 1021.9 hPa West 3.2 km/h 6.4 km/h 60 % 0.0 mm
03:35 9.0 °C 1.4 °C 1021.9 hPa West 1.6 km/h 6.4 km/h 59 % 0.0 mm
03:45 9.1 °C 1.5 °C 1021.9 hPa West 4.8 km/h 9.7 km/h 59 % 0.0 mm
03:55 9.4 °C 1.8 °C 1021.9 hPa WNW 3.2 km/h 6.4 km/h 59 % 0.0 mm
04:05 9.7 °C 2.1 °C 1020.9 hPa NW 3.2 km/h 4.8 km/h 59 % 0.0 mm
04:15 10.0 °C 2.1 °C 1020.9 hPa West 8.0 km/h 8.0 km/h 58 % 0.0 mm
04:25 10.3 °C 2.4 °C 1020.9 hPa WSW 1.6 km/h 12.9 km/h 58 % 0.0 mm
04:35 10.7 °C 2.8 °C 1020.9 hPa West 4.8 km/h 9.7 km/h 58 % 0.0 mm
10:36 10.8 °C 2.8 °C 1021.9 hPa NW 9.3 km/h 9.3 km/h 58 % 0.0 mm
10:42 11.0 °C 3.1 °C 1021.9 hPa West 7.4 km/h 7.4 km/h 58 % 0.0 mm
10:58 10.4 °C 2.0 °C 1021.9 hPa SW 7.4 km/h 7.4 km/h 56 % 0.0 mm
11:14 11.5 °C 3.3 °C 1021.9 hPa NW 13.0 km/h 13.0 km/h 57 % 0.0 mm
12:02 12.8 °C 4.0 °C 1021.9 hPa WNW 7.2 km/h 7.2 km/h 55 % 0.0 mm
12:15 13.3 °C 4.4 °C 1021.9 hPa SSW 9.3 km/h 9.3 km/h 55 % 0.0 mm
12:22 13.5 °C 4.6 °C 1021.9 hPa NW 5.6 km/h 5.6 km/h 55 % 0.0 mm
12:52 14.0 °C 4.8 °C 1019.9 hPa WSW 14.8 km/h 14.8 km/h 54 % 0.0 mm
13:14 14.9 °C 5.9 °C 1019.9 hPa WSW 5.6 km/h 5.6 km/h 55 % 0.0 mm
13:20 15.0 °C 6.0 °C 1019.9 hPa WSW 7.4 km/h 7.4 km/h 55 % 0.0 mm
13:41 15.1 °C 5.8 °C 1019.9 hPa West 5.6 km/h 5.6 km/h 54 % 0.0 mm
Meteo Sesrovires
Elogis d' Weather Underground - 2.75 mb

Guio original per  Jim McMurry - jmcmurry@mwt.net Adaptat per a la plantilla per  Wim van der Kuil - Leuven-Template.eu

Trobareu la nostra informacio del temps tambe a:

Weather Underground

AWEKAS